Suula — OJKZ — position and weather

sailwx.info

Track history (hours):
 
Tides and Currents Weather Stations Pressure Air Temp Water Temp Dewpoint Dewpoint Depression Visibility Wind Speed Wind Dir Waves Ship Positions

Suula

Last reported at 2018-Jan-22 19:56 UTC. Time now 2018-Jan-23 06:28 UTC.
Position N 60°21' E 019°01'.

Length 140 m; draft 6.5 m.

Type: Tanker. MMSI: 230956996.

Date/timePositionNaut miles runAvg speedWind from/ knotsBaromVisibWave heightAir tempDewpointWater temp
2018-Jan-22 19:56N 60°21' E 019°01'513.0
2018-Jan-22 19:30N 60°16' E 019°01'612.7
2018-Jan-22 19:00N 60°10' E 019°07'612.7
2018-Jan-22 18:30N 60°05' E 019°15'6312.3
2018-Jan-22 13:24N 59°32' E 021°02'513.1
2018-Jan-22 13:00N 59°31' E 021°12'713.0
2018-Jan-22 12:30N 59°30' E 021°25'712.9
2018-Jan-22 11:58N 59°30' E 021°38'612.7
2018-Jan-22 11:30N 59°31' E 021°50'3713.0
2018-Jan-22 08:41N 59°37' E 023°01'212.8
2018-Jan-22 08:30N 59°38' E 023°05'612.8
2018-Jan-22 08:00N 59°39' E 023°18'713.1
2018-Jan-22 07:30N 59°40' E 023°30'713.0
2018-Jan-22 07:00N 59°42' E 023°43'713.2
2018-Jan-22 06:30N 59°44' E 023°55'612.6
2018-Jan-22 06:00N 59°45' E 024°07'812.9
2018-Jan-22 05:21N 59°48' E 024°24'412.7
2018-Jan-22 05:00N 59°49' E 024°32'612.5
2018-Jan-22 04:30N 59°50' E 024°44'612.5
2018-Jan-22 04:00N 59°51' E 024°56'612.9
2018-Jan-22 03:30N 59°53' E 025°09'713.2
2018-Jan-22 03:00N 59°56' E 025°20'713.0
2018-Jan-22 02:29N 59°60' E 025°32'511.1
2018-Jan-22 02:00N 60°05' E 025°35'712.4
2018-Jan-22 01:24N 60°12' E 025°37'  
2018-Jan-19 12:57N 59°59' E 026°12'4 9.6
2018-Jan-19 12:30N 59°60' E 026°20'5 9.7
2018-Jan-19 12:00N 60°01' E 026°30'5 9.4
2018-Jan-19 11:29N 60°01' E 026°40'510.5
2018-Jan-19 11:00N 60°00' E 026°49'5 9.5
2018-Jan-19 10:30N 59°60' E 026°59'5 9.4
2018-Jan-19 10:00N 60°01' E 027°08'5 9.5
2018-Jan-19 09:30N 60°03' E 027°16'5 9.1
2018-Jan-19 09:00N 60°06' E 027°24'4 8.7
2018-Jan-19 08:30N 60°08' E 027°31'4 8.8
2018-Jan-19 08:00N 60°10' E 027°39'4 8.2
2018-Jan-19 07:29N 60°12' E 027°47'5 9.7
2018-Jan-19 07:00N 60°11' E 027°56'4 8.6
2018-Jan-19 06:30N 60°10' E 028°04'5 8.9
2018-Jan-19 06:00N 60°09' E 028°13'5 9.3
2018-Jan-19 05:30N 60°06' E 028°21'714.6
2018-Jan-19 05:00N 60°03' E 028°33'713.0
2018-Jan-19 04:30N 59°57' E 028°35'4 7.5
2018-Jan-19 04:00N 59°53' E 028°31'713.4
2018-Jan-19 03:30N 59°47' E 028°25'5 9.4
2018-Jan-19 03:00N 59°43' E 028°26'0 0.1
2018-Jan-19 02:25N 59°43' E 028°26'0 0.0
2018-Jan-19 01:55N 59°43' E 028°26'0 0.0
2018-Jan-19 01:28N 59°43' E 028°26'0 0.0
2018-Jan-19 00:58N 59°43' E 028°26'0 0.0
2018-Jan-19 00:22N 59°43' E 028°26'0 0.0
2018-Jan-18 23:58N 59°43' E 028°26'0 0.0
2018-Jan-18 23:28N 59°43' E 028°26'0 0.0
2018-Jan-18 22:57N 59°43' E 028°26'0 0.0
2018-Jan-18 22:27N 59°43' E 028°26'0 0.0
2018-Jan-18 21:57N 59°43' E 028°26'0 0.0
2018-Jan-18 21:27N 59°43' E 028°26'0 0.0
2018-Jan-18 20:57N 59°43' E 028°26'0 0.0
2018-Jan-18 20:27N 59°43' E 028°26'0 0.0
2018-Jan-18 20:00N 59°43' E 028°26'0 0.0
2018-Jan-18 19:30N 59°43' E 028°26'0 0.0
2018-Jan-18 19:00N 59°43' E 028°26'0 0.0
2018-Jan-18 18:30N 59°43' E 028°26'0 0.0
2018-Jan-18 18:00N 59°43' E 028°26'0 0.0
2018-Jan-18 17:30N 59°43' E 028°26'0 0.0
2018-Jan-18 17:00N 59°43' E 028°26'0 0.0
2018-Jan-18 16:30N 59°43' E 028°26'0 0.0
2018-Jan-18 16:00N 59°43' E 028°26'0 0.0
2018-Jan-18 15:30N 59°43' E 028°26'0 0.0
2018-Jan-18 15:00N 59°43' E 028°26'0 0.0
2018-Jan-18 14:30N 59°43' E 028°26'0 0.0
2018-Jan-18 14:00N 59°43' E 028°26'0 0.0
2018-Jan-18 13:30N 59°43' E 028°26'0 0.0
2018-Jan-18 13:00N 59°43' E 028°26'0 0.0
2018-Jan-18 12:18N 59°43' E 028°26'0 0.0
2018-Jan-18 12:00N 59°43' E 028°26'0 0.0
2018-Jan-18 11:30N 59°43' E 028°26'0 0.0
2018-Jan-18 11:00N 59°43' E 028°26'0 0.0
2018-Jan-18 10:30N 59°43' E 028°26'0 0.0
2018-Jan-18 10:00N 59°43' E 028°26'0 0.0
2018-Jan-18 09:30N 59°43' E 028°26'0 0.0
2018-Jan-18 09:00N 59°43' E 028°26'0 0.0
2018-Jan-18 08:30N 59°43' E 028°26'0 0.0
2018-Jan-18 08:00N 59°43' E 028°26'0 0.0
2018-Jan-18 07:30N 59°43' E 028°26'0 0.0
2018-Jan-18 07:00N 59°43' E 028°26'0 0.0
2018-Jan-18 06:21N 59°43' E 028°26'0 0.0
2018-Jan-18 05:55N 59°43' E 028°26'0 0.0
2018-Jan-18 05:30N 59°43' E 028°26'1 1.3
2018-Jan-18 05:00N 59°43' E 028°25'4 8.0
2018-Jan-18 04:30N 59°47' E 028°25'611.7
2018-Jan-18 04:01N 59°53' E 028°29'5 9.9
2018-Jan-18 03:30N 59°57' E 028°34'4 7.3
2018-Jan-18 03:00N 60°01' E 028°36'3 6.8
2018-Jan-18 02:30N 60°03' E 028°30'4 8.8
2018-Jan-18 02:01N 60°04' E 028°22'5 9.4
2018-Jan-18 01:30N 60°07' E 028°15'5 9.6
2018-Jan-18 01:01N 60°08' E 028°05'10 9.4
2018-Jan-18 00:00N 60°11' E 027°47'0 8.5
2018-Jan-17 23:58N 60°11' E 027°46'  
Track history (hours):
 
Tides and Currents Weather Stations Pressure Air Temp Water Temp Dewpoint Dewpoint Depression Visibility Wind Speed Wind Dir Waves Ship Positions

Suula

Last reported at 2018-Jan-22 19:56 UTC. Time now 2018-Jan-23 06:28 UTC.
Position N 60°21' E 019°01'.

Length 140 m; draft 6.5 m.

Type: Tanker. MMSI: 230956996.

Date/timePositionNaut miles runAvg speedWind from/ knotsBaromVisibWave heightAir tempDewpointWater temp
2018-Jan-22 19:56N 60°21' E 019°01'513.0
2018-Jan-22 19:30N 60°16' E 019°01'612.7
2018-Jan-22 19:00N 60°10' E 019°07'612.7
2018-Jan-22 18:30N 60°05' E 019°15'6312.3
2018-Jan-22 13:24N 59°32' E 021°02'513.1
2018-Jan-22 13:00N 59°31' E 021°12'713.0
2018-Jan-22 12:30N 59°30' E 021°25'712.9
2018-Jan-22 11:58N 59°30' E 021°38'612.7
2018-Jan-22 11:30N 59°31' E 021°50'3713.0
2018-Jan-22 08:41N 59°37' E 023°01'212.8
2018-Jan-22 08:30N 59°38' E 023°05'612.8
2018-Jan-22 08:00N 59°39' E 023°18'713.1
2018-Jan-22 07:30N 59°40' E 023°30'713.0
2018-Jan-22 07:00N 59°42' E 023°43'713.2
2018-Jan-22 06:30N 59°44' E 023°55'612.6
2018-Jan-22 06:00N 59°45' E 024°07'812.9
2018-Jan-22 05:21N 59°48' E 024°24'412.7
2018-Jan-22 05:00N 59°49' E 024°32'612.5
2018-Jan-22 04:30N 59°50' E 024°44'612.5
2018-Jan-22 04:00N 59°51' E 024°56'612.9
2018-Jan-22 03:30N 59°53' E 025°09'713.2
2018-Jan-22 03:00N 59°56' E 025°20'713.0
2018-Jan-22 02:29N 59°60' E 025°32'511.1
2018-Jan-22 02:00N 60°05' E 025°35'712.4
2018-Jan-22 01:24N 60°12' E 025°37'  
2018-Jan-19 12:57N 59°59' E 026°12'4 9.6
2018-Jan-19 12:30N 59°60' E 026°20'5 9.7
2018-Jan-19 12:00N 60°01' E 026°30'5 9.4
2018-Jan-19 11:29N 60°01' E 026°40'510.5
2018-Jan-19 11:00N 60°00' E 026°49'5 9.5
2018-Jan-19 10:30N 59°60' E 026°59'5 9.4
2018-Jan-19 10:00N 60°01' E 027°08'5 9.5
2018-Jan-19 09:30N 60°03' E 027°16'5 9.1
2018-Jan-19 09:00N 60°06' E 027°24'4 8.7
2018-Jan-19 08:30N 60°08' E 027°31'4 8.8
2018-Jan-19 08:00N 60°10' E 027°39'4 8.2
2018-Jan-19 07:29N 60°12' E 027°47'5 9.7
2018-Jan-19 07:00N 60°11' E 027°56'4 8.6
2018-Jan-19 06:30N 60°10' E 028°04'5 8.9
2018-Jan-19 06:00N 60°09' E 028°13'5 9.3
2018-Jan-19 05:30N 60°06' E 028°21'714.6
2018-Jan-19 05:00N 60°03' E 028°33'713.0
2018-Jan-19 04:30N 59°57' E 028°35'4 7.5
2018-Jan-19 04:00N 59°53' E 028°31'713.4
2018-Jan-19 03:30N 59°47' E 028°25'5 9.4
2018-Jan-19 03:00N 59°43' E 028°26'0 0.1
2018-Jan-19 02:25N 59°43' E 028°26'0 0.0
2018-Jan-19 01:55N 59°43' E 028°26'0 0.0
2018-Jan-19 01:28N 59°43' E 028°26'0 0.0
2018-Jan-19 00:58N 59°43' E 028°26'0 0.0
2018-Jan-19 00:22N 59°43' E 028°26'0 0.0
2018-Jan-18 23:58N 59°43' E 028°26'0 0.0
2018-Jan-18 23:28N 59°43' E 028°26'0 0.0
2018-Jan-18 22:57N 59°43' E 028°26'0 0.0
2018-Jan-18 22:27N 59°43' E 028°26'0 0.0
2018-Jan-18 21:57N 59°43' E 028°26'0 0.0
2018-Jan-18 21:27N 59°43' E 028°26'0 0.0
2018-Jan-18 20:57N 59°43' E 028°26'0 0.0
2018-Jan-18 20:27N 59°43' E 028°26'0 0.0
2018-Jan-18 20:00N 59°43' E 028°26'0 0.0
2018-Jan-18 19:30N 59°43' E 028°26'0 0.0
2018-Jan-18 19:00N 59°43' E 028°26'0 0.0
2018-Jan-18 18:30N 59°43' E 028°26'0 0.0
2018-Jan-18 18:00N 59°43' E 028°26'0 0.0
2018-Jan-18 17:30N 59°43' E 028°26'0 0.0
2018-Jan-18 17:00N 59°43' E 028°26'0 0.0
2018-Jan-18 16:30N 59°43' E 028°26'0 0.0
2018-Jan-18 16:00N 59°43' E 028°26'0 0.0
2018-Jan-18 15:30N 59°43' E 028°26'0 0.0
2018-Jan-18 15:00N 59°43' E 028°26'0 0.0
2018-Jan-18 14:30N 59°43' E 028°26'0 0.0
2018-Jan-18 14:00N 59°43' E 028°26'0 0.0
2018-Jan-18 13:30N 59°43' E 028°26'0 0.0
2018-Jan-18 13:00N 59°43' E 028°26'0 0.0
2018-Jan-18 12:18N 59°43' E 028°26'0 0.0
2018-Jan-18 12:00N 59°43' E 028°26'0 0.0
2018-Jan-18 11:30N 59°43' E 028°26'0 0.0
2018-Jan-18 11:00N 59°43' E 028°26'0 0.0
2018-Jan-18 10:30N 59°43' E 028°26'0 0.0
2018-Jan-18 10:00N 59°43' E 028°26'0 0.0
2018-Jan-18 09:30N 59°43' E 028°26'0 0.0
2018-Jan-18 09:00N 59°43' E 028°26'0 0.0
2018-Jan-18 08:30N 59°43' E 028°26'0 0.0
2018-Jan-18 08:00N 59°43' E 028°26'0 0.0
2018-Jan-18 07:30N 59°43' E 028°26'0 0.0
2018-Jan-18 07:00N 59°43' E 028°26'0 0.0
2018-Jan-18 06:21N 59°43' E 028°26'0 0.0
2018-Jan-18 05:55N 59°43' E 028°26'0 0.0
2018-Jan-18 05:30N 59°43' E 028°26'1 1.3
2018-Jan-18 05:00N 59°43' E 028°25'4 8.0
2018-Jan-18 04:30N 59°47' E 028°25'611.7
2018-Jan-18 04:01N 59°53' E 028°29'5 9.9
2018-Jan-18 03:30N 59°57' E 028°34'4 7.3
2018-Jan-18 03:00N 60°01' E 028°36'3 6.8
2018-Jan-18 02:30N 60°03' E 028°30'4 8.8
2018-Jan-18 02:01N 60°04' E 028°22'5 9.4
2018-Jan-18 01:30N 60°07' E 028°15'5 9.6
2018-Jan-18 01:01N 60°08' E 028°05'10 9.4
2018-Jan-18 00:00N 60°11' E 027°47'0 8.5
2018-Jan-17 23:58N 60°11' E 027°46'  

Dump ship's entire track history